sensor_id;sensor_type;location;lat;lon;timestamp;temperature;humidity
3262;DHT22;1643;47.746;9.000;2023-12-07T00:00:22;4.40;99.90
3262;DHT22;1643;47.746;9.000;2023-12-07T00:02:47;4.40;99.90
3262;DHT22;1643;47.746;9.000;2023-12-07T00:05:13;4.50;99.90
3262;DHT22;1643;47.746;9.000;2023-12-07T00:07:39;4.40;99.90
3262;DHT22;1643;47.746;9.000;2023-12-07T00:10:05;4.40;99.90
3262;DHT22;1643;47.746;9.000;2023-12-07T00:12:30;4.40;99.90
3262;DHT22;1643;47.746;9.000;2023-12-07T00:14:56;4.40;99.90
3262;DHT22;1643;47.746;9.000;2023-12-07T00:17:22;4.40;99.90
3262;DHT22;1643;47.746;9.000;2023-12-07T00:19:50;4.40;99.90
3262;DHT22;1643;47.746;9.000;2023-12-07T00:22:16;4.40;99.90
3262;DHT22;1643;47.746;9.000;2023-12-07T00:24:42;4.40;99.90
3262;DHT22;1643;47.746;9.000;2023-12-07T00:27:07;4.40;99.90
3262;DHT22;1643;47.746;9.000;2023-12-07T00:29:33;4.40;99.90
3262;DHT22;1643;47.746;9.000;2023-12-07T00:31:58;4.40;99.90
3262;DHT22;1643;47.746;9.000;2023-12-07T00:34:24;4.40;99.90
3262;DHT22;1643;47.746;9.000;2023-12-07T00:36:50;4.40;99.90
3262;DHT22;1643;47.746;9.000;2023-12-07T00:39:15;4.40;99.90
3262;DHT22;1643;47.746;9.000;2023-12-07T00:41:42;4.30;99.90
3262;DHT22;1643;47.746;9.000;2023-12-07T00:44:08;4.40;99.90
3262;DHT22;1643;47.746;9.000;2023-12-07T00:46:33;4.30;99.90
3262;DHT22;1643;47.746;9.000;2023-12-07T00:48:59;4.30;99.90
3262;DHT22;1643;47.746;9.000;2023-12-07T00:51:26;4.30;99.90
3262;DHT22;1643;47.746;9.000;2023-12-07T00:53:51;4.30;99.90
3262;DHT22;1643;47.746;9.000;2023-12-07T00:56:17;4.20;99.90
3262;DHT22;1643;47.746;9.000;2023-12-07T00:58:42;4.20;99.90
3262;DHT22;1643;47.746;9.000;2023-12-07T01:01:08;4.30;99.90
3262;DHT22;1643;47.746;9.000;2023-12-07T01:03:33;4.20;99.90
3262;DHT22;1643;47.746;9.000;2023-12-07T01:05:59;4.20;99.90
3262;DHT22;1643;47.746;9.000;2023-12-07T01:08:25;4.20;99.90
3262;DHT22;1643;47.746;9.000;2023-12-07T01:10:50;4.20;99.90
3262;DHT22;1643;47.746;9.000;2023-12-07T01:13:16;4.10;99.90
3262;DHT22;1643;47.746;9.000;2023-12-07T01:15:42;4.20;99.90
3262;DHT22;1643;47.746;9.000;2023-12-07T01:18:07;4.20;99.90
3262;DHT22;1643;47.746;9.000;2023-12-07T01:20:33;4.30;99.90
3262;DHT22;1643;47.746;9.000;2023-12-07T01:22:58;4.20;99.90
3262;DHT22;1643;47.746;9.000;2023-12-07T01:25:24;4.10;99.90
3262;DHT22;1643;47.746;9.000;2023-12-07T01:27:50;4.20;99.90
3262;DHT22;1643;47.746;9.000;2023-12-07T01:30:16;4.20;99.90
3262;DHT22;1643;47.746;9.000;2023-12-07T01:32:41;4.20;99.90
3262;DHT22;1643;47.746;9.000;2023-12-07T01:35:07;4.20;99.90
3262;DHT22;1643;47.746;9.000;2023-12-07T01:37:33;4.20;99.90
3262;DHT22;1643;47.746;9.000;2023-12-07T01:39:59;4.30;99.90
3262;DHT22;1643;47.746;9.000;2023-12-07T01:42:24;4.30;99.90
3262;DHT22;1643;47.746;9.000;2023-12-07T01:44:50;4.20;99.90
3262;DHT22;1643;47.746;9.000;2023-12-07T01:47:15;4.20;99.90
3262;DHT22;1643;47.746;9.000;2023-12-07T01:49:41;4.20;99.90
3262;DHT22;1643;47.746;9.000;2023-12-07T01:52:08;4.20;99.90
3262;DHT22;1643;47.746;9.000;2023-12-07T01:54:34;4.10;99.90
3262;DHT22;1643;47.746;9.000;2023-12-07T01:57:01;4.10;99.90
3262;DHT22;1643;47.746;9.000;2023-12-07T01:59:26;4.10;99.90
3262;DHT22;1643;47.746;9.000;2023-12-07T02:01:52;4.10;99.90
3262;DHT22;1643;47.746;9.000;2023-12-07T02:04:18;4.10;99.90
3262;DHT22;1643;47.746;9.000;2023-12-07T02:06:44;4.00;99.90
3262;DHT22;1643;47.746;9.000;2023-12-07T02:09:10;4.00;99.90
3262;DHT22;1643;47.746;9.000;2023-12-07T02:11:36;4.10;99.90
3262;DHT22;1643;47.746;9.000;2023-12-07T02:14:01;4.00;99.90
3262;DHT22;1643;47.746;9.000;2023-12-07T02:16:39;3.90;99.90
3262;DHT22;1643;47.746;9.000;2023-12-07T02:21:52;4.00;99.90
3262;DHT22;1643;47.746;9.000;2023-12-07T02:24:21;4.10;99.90
3262;DHT22;1643;47.746;9.000;2023-12-07T02:26:48;4.10;99.90
3262;DHT22;1643;47.746;9.000;2023-12-07T02:29:13;4.10;99.90
3262;DHT22;1643;47.746;9.000;2023-12-07T02:31:40;4.10;99.90
3262;DHT22;1643;47.746;9.000;2023-12-07T02:34:05;4.10;99.90
3262;DHT22;1643;47.746;9.000;2023-12-07T02:36:32;4.10;99.90
3262;DHT22;1643;47.746;9.000;2023-12-07T02:39:01;4.10;99.90
3262;DHT22;1643;47.746;9.000;2023-12-07T02:41:30;4.10;99.90
3262;DHT22;1643;47.746;9.000;2023-12-07T02:43:59;4.10;99.90
3262;DHT22;1643;47.746;9.000;2023-12-07T02:46:25;4.10;99.90
3262;DHT22;1643;47.746;9.000;2023-12-07T02:48:51;4.10;99.90
3262;DHT22;1643;47.746;9.000;2023-12-07T02:51:17;4.10;99.90
3262;DHT22;1643;47.746;9.000;2023-12-07T02:53:42;4.10;99.90
3262;DHT22;1643;47.746;9.000;2023-12-07T02:56:08;4.00;99.90
3262;DHT22;1643;47.746;9.000;2023-12-07T02:58:34;4.00;99.90
3262;DHT22;1643;47.746;9.000;2023-12-07T03:00:59;4.00;99.90
3262;DHT22;1643;47.746;9.000;2023-12-07T03:03:25;4.00;99.90
3262;DHT22;1643;47.746;9.000;2023-12-07T03:05:51;4.00;99.90
3262;DHT22;1643;47.746;9.000;2023-12-07T03:08:16;4.10;99.90
3262;DHT22;1643;47.746;9.000;2023-12-07T03:10:42;4.10;99.90
3262;DHT22;1643;47.746;9.000;2023-12-07T03:13:08;4.10;99.90
3262;DHT22;1643;47.746;9.000;2023-12-07T03:15:33;4.10;99.90
3262;DHT22;1643;47.746;9.000;2023-12-07T03:17:59;4.10;99.90
3262;DHT22;1643;47.746;9.000;2023-12-07T03:20:25;4.00;99.90
3262;DHT22;1643;47.746;9.000;2023-12-07T03:22:50;4.00;99.90
3262;DHT22;1643;47.746;9.000;2023-12-07T03:25:16;4.10;99.90
3262;DHT22;1643;47.746;9.000;2023-12-07T03:27:42;4.10;99.90
3262;DHT22;1643;47.746;9.000;2023-12-07T03:30:07;4.00;99.90
3262;DHT22;1643;47.746;9.000;2023-12-07T03:32:33;4.00;99.90
3262;DHT22;1643;47.746;9.000;2023-12-07T03:34:59;4.10;99.90
3262;DHT22;1643;47.746;9.000;2023-12-07T03:37:24;4.10;99.90
3262;DHT22;1643;47.746;9.000;2023-12-07T03:39:50;4.00;99.90
3262;DHT22;1643;47.746;9.000;2023-12-07T03:42:15;4.10;99.90
3262;DHT22;1643;47.746;9.000;2023-12-07T03:44:41;4.00;99.90
3262;DHT22;1643;47.746;9.000;2023-12-07T03:47:08;4.10;99.90
3262;DHT22;1643;47.746;9.000;2023-12-07T03:49:34;4.10;99.90
3262;DHT22;1643;47.746;9.000;2023-12-07T03:51:59;4.00;99.90
3262;DHT22;1643;47.746;9.000;2023-12-07T03:54:25;4.00;99.90
3262;DHT22;1643;47.746;9.000;2023-12-07T03:56:51;4.10;99.90
3262;DHT22;1643;47.746;9.000;2023-12-07T03:59:16;4.10;99.90
3262;DHT22;1643;47.746;9.000;2023-12-07T04:01:42;4.10;99.90
3262;DHT22;1643;47.746;9.000;2023-12-07T04:04:07;4.10;99.90
3262;DHT22;1643;47.746;9.000;2023-12-07T04:06:33;4.10;99.90
3262;DHT22;1643;47.746;9.000;2023-12-07T04:08:59;4.20;99.90
3262;DHT22;1643;47.746;9.000;2023-12-07T04:11:24;4.20;99.90
3262;DHT22;1643;47.746;9.000;2023-12-07T04:13:50;4.20;99.90
3262;DHT22;1643;47.746;9.000;2023-12-07T04:16:16;4.20;99.90
3262;DHT22;1643;47.746;9.000;2023-12-07T04:18:42;4.20;99.90
3262;DHT22;1643;47.746;9.000;2023-12-07T04:21:07;4.20;99.90
3262;DHT22;1643;47.746;9.000;2023-12-07T04:23:33;4.20;99.90
3262;DHT22;1643;47.746;9.000;2023-12-07T04:25:59;4.20;99.90
3262;DHT22;1643;47.746;9.000;2023-12-07T04:28:24;4.10;99.90
3262;DHT22;1643;47.746;9.000;2023-12-07T04:30:50;4.10;99.90
3262;DHT22;1643;47.746;9.000;2023-12-07T04:33:16;4.10;99.90
3262;DHT22;1643;47.746;9.000;2023-12-07T04:35:41;4.10;99.90
3262;DHT22;1643;47.746;9.000;2023-12-07T04:38:07;4.10;99.90
3262;DHT22;1643;47.746;9.000;2023-12-07T04:40:32;4.10;99.90
3262;DHT22;1643;47.746;9.000;2023-12-07T04:42:58;4.20;99.90
3262;DHT22;1643;47.746;9.000;2023-12-07T04:45:24;4.20;99.90
3262;DHT22;1643;47.746;9.000;2023-12-07T04:47:50;4.20;99.90
3262;DHT22;1643;47.746;9.000;2023-12-07T04:50:15;4.10;99.90
3262;DHT22;1643;47.746;9.000;2023-12-07T04:52:41;4.10;99.90
3262;DHT22;1643;47.746;9.000;2023-12-07T04:55:07;4.20;99.90
3262;DHT22;1643;47.746;9.000;2023-12-07T04:57:36;4.20;99.90
3262;DHT22;1643;47.746;9.000;2023-12-07T05:00:03;4.30;99.90
3262;DHT22;1643;47.746;9.000;2023-12-07T05:02:31;4.20;99.90
3262;DHT22;1643;47.746;9.000;2023-12-07T05:04:57;4.20;99.90
3262;DHT22;1643;47.746;9.000;2023-12-07T05:07:23;4.20;99.90
3262;DHT22;1643;47.746;9.000;2023-12-07T05:09:49;4.20;99.90
3262;DHT22;1643;47.746;9.000;2023-12-07T05:12:16;4.20;99.90
3262;DHT22;1643;47.746;9.000;2023-12-07T05:14:42;4.20;99.90
3262;DHT22;1643;47.746;9.000;2023-12-07T05:17:07;4.00;99.90
3262;DHT22;1643;47.746;9.000;2023-12-07T05:19:33;4.10;99.90
3262;DHT22;1643;47.746;9.000;2023-12-07T05:21:59;4.00;99.90
3262;DHT22;1643;47.746;9.000;2023-12-07T05:24:25;4.00;99.90
3262;DHT22;1643;47.746;9.000;2023-12-07T05:26:50;4.00;99.90
3262;DHT22;1643;47.746;9.000;2023-12-07T05:29:17;4.10;99.90
3262;DHT22;1643;47.746;9.000;2023-12-07T05:31:43;4.10;99.90
3262;DHT22;1643;47.746;9.000;2023-12-07T05:34:08;4.10;99.90
3262;DHT22;1643;47.746;9.000;2023-12-07T05:36:34;4.10;99.90
3262;DHT22;1643;47.746;9.000;2023-12-07T05:39:00;4.00;99.90
3262;DHT22;1643;47.746;9.000;2023-12-07T05:41:25;4.10;99.90
3262;DHT22;1643;47.746;9.000;2023-12-07T05:43:51;4.10;99.90
3262;DHT22;1643;47.746;9.000;2023-12-07T05:46:18;4.00;99.90
3262;DHT22;1643;47.746;9.000;2023-12-07T05:48:44;4.10;99.90
3262;DHT22;1643;47.746;9.000;2023-12-07T05:51:13;4.00;99.90
3262;DHT22;1643;47.746;9.000;2023-12-07T05:53:43;4.00;99.90
3262;DHT22;1643;47.746;9.000;2023-12-07T05:56:09;4.00;99.90
3262;DHT22;1643;47.746;9.000;2023-12-07T05:58:35;4.00;99.90
3262;DHT22;1643;47.746;9.000;2023-12-07T06:01:01;4.10;99.90
3262;DHT22;1643;47.746;9.000;2023-12-07T06:03:30;4.10;99.90
3262;DHT22;1643;47.746;9.000;2023-12-07T06:05:56;4.10;99.90
3262;DHT22;1643;47.746;9.000;2023-12-07T06:08:22;4.10;99.90
3262;DHT22;1643;47.746;9.000;2023-12-07T06:10:48;4.10;99.90
3262;DHT22;1643;47.746;9.000;2023-12-07T06:13:14;4.10;99.90
3262;DHT22;1643;47.746;9.000;2023-12-07T06:15:40;4.10;99.90
3262;DHT22;1643;47.746;9.000;2023-12-07T06:18:06;4.10;99.90
3262;DHT22;1643;47.746;9.000;2023-12-07T06:20:32;4.10;99.90
3262;DHT22;1643;47.746;9.000;2023-12-07T06:22:57;4.10;99.90
3262;DHT22;1643;47.746;9.000;2023-12-07T06:25:24;4.00;99.90
3262;DHT22;1643;47.746;9.000;2023-12-07T06:27:49;4.10;99.90
3262;DHT22;1643;47.746;9.000;2023-12-07T06:30:15;4.00;99.90
3262;DHT22;1643;47.746;9.000;2023-12-07T06:32:41;4.00;99.90
3262;DHT22;1643;47.746;9.000;2023-12-07T06:35:07;4.00;99.90
3262;DHT22;1643;47.746;9.000;2023-12-07T06:37:34;4.00;99.90
3262;DHT22;1643;47.746;9.000;2023-12-07T06:39:59;3.90;99.90
3262;DHT22;1643;47.746;9.000;2023-12-07T06:42:26;3.90;99.90
3262;DHT22;1643;47.746;9.000;2023-12-07T06:44:51;3.90;99.90
3262;DHT22;1643;47.746;9.000;2023-12-07T06:47:17;3.90;99.90
3262;DHT22;1643;47.746;9.000;2023-12-07T06:49:44;3.90;99.90
3262;DHT22;1643;47.746;9.000;2023-12-07T06:52:09;3.90;99.90
3262;DHT22;1643;47.746;9.000;2023-12-07T06:54:36;3.90;99.90
3262;DHT22;1643;47.746;9.000;2023-12-07T06:57:02;3.90;99.90
3262;DHT22;1643;47.746;9.000;2023-12-07T06:59:28;3.90;99.90
3262;DHT22;1643;47.746;9.000;2023-12-07T07:01:54;3.80;99.90
3262;DHT22;1643;47.746;9.000;2023-12-07T07:04:19;3.90;99.90
3262;DHT22;1643;47.746;9.000;2023-12-07T07:06:45;3.80;99.90
3262;DHT22;1643;47.746;9.000;2023-12-07T07:09:11;3.90;99.90
3262;DHT22;1643;47.746;9.000;2023-12-07T07:11:38;3.90;99.90
3262;DHT22;1643;47.746;9.000;2023-12-07T07:14:04;3.80;99.90
3262;DHT22;1643;47.746;9.000;2023-12-07T07:16:30;3.80;99.90
3262;DHT22;1643;47.746;9.000;2023-12-07T07:18:56;3.80;99.90
3262;DHT22;1643;47.746;9.000;2023-12-07T07:21:22;3.80;99.90
3262;DHT22;1643;47.746;9.000;2023-12-07T07:23:47;3.80;99.90
3262;DHT22;1643;47.746;9.000;2023-12-07T07:26:13;3.80;99.90
3262;DHT22;1643;47.746;9.000;2023-12-07T07:28:43;3.80;99.90
3262;DHT22;1643;47.746;9.000;2023-12-07T07:31:08;3.80;99.90
3262;DHT22;1643;47.746;9.000;2023-12-07T07:33:34;3.80;99.90
3262;DHT22;1643;47.746;9.000;2023-12-07T07:36:00;3.80;99.90
3262;DHT22;1643;47.746;9.000;2023-12-07T07:38:26;3.80;99.90
3262;DHT22;1643;47.746;9.000;2023-12-07T07:40:52;3.70;99.90
3262;DHT22;1643;47.746;9.000;2023-12-07T07:43:17;3.70;99.90
3262;DHT22;1643;47.746;9.000;2023-12-07T07:45:43;3.70;99.90
3262;DHT22;1643;47.746;9.000;2023-12-07T07:48:09;3.80;99.90
3262;DHT22;1643;47.746;9.000;2023-12-07T07:50:35;3.80;99.90
3262;DHT22;1643;47.746;9.000;2023-12-07T07:53:02;3.80;99.90
3262;DHT22;1643;47.746;9.000;2023-12-07T07:55:27;3.90;99.90
3262;DHT22;1643;47.746;9.000;2023-12-07T07:57:53;3.90;99.90
3262;DHT22;1643;47.746;9.000;2023-12-07T08:00:19;3.90;99.90
3262;DHT22;1643;47.746;9.000;2023-12-07T08:02:46;3.90;99.90
3262;DHT22;1643;47.746;9.000;2023-12-07T08:05:11;3.90;99.90
3262;DHT22;1643;47.746;9.000;2023-12-07T08:07:38;3.90;99.90
3262;DHT22;1643;47.746;9.000;2023-12-07T08:10:05;3.90;99.90
3262;DHT22;1643;47.746;9.000;2023-12-07T08:12:31;3.90;99.90
3262;DHT22;1643;47.746;9.000;2023-12-07T08:14:56;3.90;99.90
3262;DHT22;1643;47.746;9.000;2023-12-07T08:17:22;4.00;99.90
3262;DHT22;1643;47.746;9.000;2023-12-07T08:19:48;4.20;99.90
3262;DHT22;1643;47.746;9.000;2023-12-07T08:22:13;4.50;99.90
3262;DHT22;1643;47.746;9.000;2023-12-07T08:24:39;4.90;99.90
3262;DHT22;1643;47.746;9.000;2023-12-07T08:27:05;5.20;99.90
3262;DHT22;1643;47.746;9.000;2023-12-07T08:29:31;5.40;99.90
3262;DHT22;1643;47.746;9.000;2023-12-07T08:31:56;5.40;99.90
3262;DHT22;1643;47.746;9.000;2023-12-07T08:34:22;5.30;99.90
3262;DHT22;1643;47.746;9.000;2023-12-07T08:36:48;5.50;99.90
3262;DHT22;1643;47.746;9.000;2023-12-07T08:39:14;5.60;99.90
3262;DHT22;1643;47.746;9.000;2023-12-07T08:41:40;5.70;99.90
3262;DHT22;1643;47.746;9.000;2023-12-07T08:44:05;5.60;99.90
3262;DHT22;1643;47.746;9.000;2023-12-07T08:46:31;5.50;99.90
3262;DHT22;1643;47.746;9.000;2023-12-07T08:48:56;5.30;99.90
3262;DHT22;1643;47.746;9.000;2023-12-07T08:51:22;5.20;99.90
3262;DHT22;1643;47.746;9.000;2023-12-07T08:53:49;5.00;99.90
3262;DHT22;1643;47.746;9.000;2023-12-07T08:56:15;4.80;99.90
3262;DHT22;1643;47.746;9.000;2023-12-07T08:58:40;4.80;99.90
3262;DHT22;1643;47.746;9.000;2023-12-07T09:01:06;4.70;99.90
3262;DHT22;1643;47.746;9.000;2023-12-07T09:03:32;4.60;99.90
3262;DHT22;1643;47.746;9.000;2023-12-07T09:05:59;4.60;99.90
3262;DHT22;1643;47.746;9.000;2023-12-07T09:08:25;4.70;99.90
3262;DHT22;1643;47.746;9.000;2023-12-07T09:10:51;4.80;99.90
3262;DHT22;1643;47.746;9.000;2023-12-07T09:13:19;4.80;99.90
3262;DHT22;1643;47.746;9.000;2023-12-07T09:15:45;4.90;99.90
3262;DHT22;1643;47.746;9.000;2023-12-07T09:18:11;4.90;99.90
3262;DHT22;1643;47.746;9.000;2023-12-07T09:20:37;5.00;99.90
3262;DHT22;1643;47.746;9.000;2023-12-07T09:23:04;5.00;99.90
3262;DHT22;1643;47.746;9.000;2023-12-07T09:25:30;5.10;99.90
3262;DHT22;1643;47.746;9.000;2023-12-07T09:27:56;5.20;99.90
3262;DHT22;1643;47.746;9.000;2023-12-07T09:30:22;5.20;99.90
3262;DHT22;1643;47.746;9.000;2023-12-07T09:32:48;5.30;99.90
3262;DHT22;1643;47.746;9.000;2023-12-07T09:35:13;5.30;99.90
3262;DHT22;1643;47.746;9.000;2023-12-07T09:37:41;5.50;99.90
3262;DHT22;1643;47.746;9.000;2023-12-07T09:40:07;5.50;99.90
3262;DHT22;1643;47.746;9.000;2023-12-07T09:42:33;5.50;99.90
3262;DHT22;1643;47.746;9.000;2023-12-07T09:44:59;5.50;99.90
3262;DHT22;1643;47.746;9.000;2023-12-07T09:47:26;5.70;99.90
3262;DHT22;1643;47.746;9.000;2023-12-07T09:49:53;6.00;99.90
3262;DHT22;1643;47.746;9.000;2023-12-07T09:52:20;6.30;99.90
3262;DHT22;1643;47.746;9.000;2023-12-07T09:54:47;6.40;99.90
3262;DHT22;1643;47.746;9.000;2023-12-07T09:57:12;6.30;99.90
3262;DHT22;1643;47.746;9.000;2023-12-07T09:59:40;6.10;99.90
3262;DHT22;1643;47.746;9.000;2023-12-07T10:02:06;6.10;99.90
3262;DHT22;1643;47.746;9.000;2023-12-07T10:04:33;5.90;99.90
3262;DHT22;1643;47.746;9.000;2023-12-07T10:06:58;5.80;99.90
3262;DHT22;1643;47.746;9.000;2023-12-07T10:09:25;5.80;99.90
3262;DHT22;1643;47.746;9.000;2023-12-07T10:12:05;5.80;99.90
3262;DHT22;1643;47.746;9.000;2023-12-07T10:14:31;5.80;99.90
3262;DHT22;1643;47.746;9.000;2023-12-07T10:16:57;5.80;99.90
3262;DHT22;1643;47.746;9.000;2023-12-07T10:19:23;5.90;99.90
3262;DHT22;1643;47.746;9.000;2023-12-07T10:21:50;5.90;99.90
3262;DHT22;1643;47.746;9.000;2023-12-07T10:24:20;5.70;99.90
3262;DHT22;1643;47.746;9.000;2023-12-07T10:26:48;5.70;99.90
3262;DHT22;1643;47.746;9.000;2023-12-07T10:29:14;5.60;99.90
3262;DHT22;1643;47.746;9.000;2023-12-07T10:31:40;5.60;99.90
3262;DHT22;1643;47.746;9.000;2023-12-07T10:34:06;5.50;99.90
3262;DHT22;1643;47.746;9.000;2023-12-07T10:36:32;5.50;99.90
3262;DHT22;1643;47.746;9.000;2023-12-07T10:39:01;5.50;99.90
3262;DHT22;1643;47.746;9.000;2023-12-07T10:41:26;5.70;99.90
3262;DHT22;1643;47.746;9.000;2023-12-07T10:44:04;5.80;99.90
3262;DHT22;1643;47.746;9.000;2023-12-07T10:46:32;5.80;99.90
3262;DHT22;1643;47.746;9.000;2023-12-07T10:49:01;5.60;99.90
3262;DHT22;1643;47.746;9.000;2023-12-07T10:51:38;5.50;99.90
3262;DHT22;1643;47.746;9.000;2023-12-07T10:54:07;5.80;99.90
3262;DHT22;1643;47.746;9.000;2023-12-07T10:56:44;6.20;99.90
3262;DHT22;1643;47.746;9.000;2023-12-07T10:59:11;6.40;99.90
3262;DHT22;1643;47.746;9.000;2023-12-07T11:01:40;6.30;99.90
3262;DHT22;1643;47.746;9.000;2023-12-07T11:04:11;6.30;99.90
3262;DHT22;1643;47.746;9.000;2023-12-07T11:06:41;6.30;99.90
3262;DHT22;1643;47.746;9.000;2023-12-07T11:09:13;6.30;99.90
3262;DHT22;1643;47.746;9.000;2023-12-07T11:11:54;6.40;99.90
3262;DHT22;1643;47.746;9.000;2023-12-07T11:14:22;6.40;99.90
3262;DHT22;1643;47.746;9.000;2023-12-07T11:16:48;6.30;99.90
3262;DHT22;1643;47.746;9.000;2023-12-07T11:22:01;6.40;99.90
3262;DHT22;1643;47.746;9.000;2023-12-07T11:24:27;6.60;99.90
3262;DHT22;1643;47.746;9.000;2023-12-07T11:26:56;6.70;99.90
3262;DHT22;1643;47.746;9.000;2023-12-07T11:29:25;6.80;99.90
3262;DHT22;1643;47.746;9.000;2023-12-07T11:31:51;6.80;99.90
3262;DHT22;1643;47.746;9.000;2023-12-07T11:34:36;6.50;99.90
3262;DHT22;1643;47.746;9.000;2023-12-07T11:37:03;6.30;99.90
3262;DHT22;1643;47.746;9.000;2023-12-07T11:39:29;6.30;99.90
3262;DHT22;1643;47.746;9.000;2023-12-07T11:41:55;6.20;99.90
3262;DHT22;1643;47.746;9.000;2023-12-07T11:44:32;6.10;99.90
3262;DHT22;1643;47.746;9.000;2023-12-07T11:46:58;6.00;99.90
3262;DHT22;1643;47.746;9.000;2023-12-07T11:49:24;6.10;99.90
3262;DHT22;1643;47.746;9.000;2023-12-07T11:51:52;6.10;99.90
3262;DHT22;1643;47.746;9.000;2023-12-07T11:54:18;6.40;99.90
3262;DHT22;1643;47.746;9.000;2023-12-07T11:56:44;6.60;99.90
3262;DHT22;1643;47.746;9.000;2023-12-07T11:59:10;6.80;99.90
3262;DHT22;1643;47.746;9.000;2023-12-07T12:01:36;6.90;99.90
3262;DHT22;1643;47.746;9.000;2023-12-07T12:04:01;7.00;99.90
3262;DHT22;1643;47.746;9.000;2023-12-07T12:06:29;7.10;99.90
3262;DHT22;1643;47.746;9.000;2023-12-07T12:08:56;7.30;99.90
3262;DHT22;1643;47.746;9.000;2023-12-07T12:11:21;7.40;99.90
3262;DHT22;1643;47.746;9.000;2023-12-07T12:13:47;7.30;99.90
3262;DHT22;1643;47.746;9.000;2023-12-07T12:16:13;7.40;99.90
3262;DHT22;1643;47.746;9.000;2023-12-07T12:18:39;7.50;99.90
3262;DHT22;1643;47.746;9.000;2023-12-07T12:21:07;7.80;99.90
3262;DHT22;1643;47.746;9.000;2023-12-07T12:23:34;8.10;99.90
3262;DHT22;1643;47.746;9.000;2023-12-07T12:26:00;8.30;99.90
3262;DHT22;1643;47.746;9.000;2023-12-07T12:28:26;8.40;99.90
3262;DHT22;1643;47.746;9.000;2023-12-07T12:30:52;8.30;99.90
3262;DHT22;1643;47.746;9.000;2023-12-07T12:33:18;8.40;99.90
3262;DHT22;1643;47.746;9.000;2023-12-07T12:35:44;8.80;99.90
3262;DHT22;1643;47.746;9.000;2023-12-07T12:38:10;9.10;99.90
3262;DHT22;1643;47.746;9.000;2023-12-07T12:40:36;9.40;99.90
3262;DHT22;1643;47.746;9.000;2023-12-07T12:43:02;9.50;99.90
3262;DHT22;1643;47.746;9.000;2023-12-07T12:45:28;9.40;99.90
3262;DHT22;1643;47.746;9.000;2023-12-07T12:47:54;9.50;99.90
3262;DHT22;1643;47.746;9.000;2023-12-07T12:50:52;9.60;99.90
3262;DHT22;1643;47.746;9.000;2023-12-07T12:53:18;9.60;99.90
3262;DHT22;1643;47.746;9.000;2023-12-07T12:55:44;9.50;99.90
3262;DHT22;1643;47.746;9.000;2023-12-07T12:58:12;9.50;99.90
3262;DHT22;1643;47.746;9.000;2023-12-07T13:00:38;9.60;99.90
3262;DHT22;1643;47.746;9.000;2023-12-07T13:03:05;9.50;99.90
3262;DHT22;1643;47.746;9.000;2023-12-07T13:05:31;9.60;99.90
3262;DHT22;1643;47.746;9.000;2023-12-07T13:08:02;9.60;99.90
3262;DHT22;1643;47.746;9.000;2023-12-07T13:10:28;9.70;99.90
3262;DHT22;1643;47.746;9.000;2023-12-07T13:12:53;9.90;99.90
3262;DHT22;1643;47.746;9.000;2023-12-07T13:15:19;9.70;99.90
3262;DHT22;1643;47.746;9.000;2023-12-07T13:17:45;9.50;99.90
3262;DHT22;1643;47.746;9.000;2023-12-07T13:20:11;9.50;99.90
3262;DHT22;1643;47.746;9.000;2023-12-07T13:22:39;9.20;99.90
3262;DHT22;1643;47.746;9.000;2023-12-07T13:25:06;9.00;99.90
3262;DHT22;1643;47.746;9.000;2023-12-07T13:27:35;9.10;99.90
3262;DHT22;1643;47.746;9.000;2023-12-07T13:30:02;9.10;99.90
3262;DHT22;1643;47.746;9.000;2023-12-07T13:32:31;9.00;99.90
3262;DHT22;1643;47.746;9.000;2023-12-07T13:34:58;9.10;99.90
3262;DHT22;1643;47.746;9.000;2023-12-07T13:37:23;9.20;99.90
3262;DHT22;1643;47.746;9.000;2023-12-07T13:39:49;9.30;99.90
3262;DHT22;1643;47.746;9.000;2023-12-07T13:42:21;9.20;99.90
3262;DHT22;1643;47.746;9.000;2023-12-07T13:44:47;9.10;99.90
3262;DHT22;1643;47.746;9.000;2023-12-07T13:47:15;9.10;99.90
3262;DHT22;1643;47.746;9.000;2023-12-07T13:49:42;9.10;99.90
3262;DHT22;1643;47.746;9.000;2023-12-07T13:52:08;9.00;99.90
3262;DHT22;1643;47.746;9.000;2023-12-07T13:54:38;8.80;99.90
3262;DHT22;1643;47.746;9.000;2023-12-07T13:57:04;8.90;99.90
3262;DHT22;1643;47.746;9.000;2023-12-07T13:59:30;8.60;99.90
3262;DHT22;1643;47.746;9.000;2023-12-07T14:01:55;8.40;99.90
3262;DHT22;1643;47.746;9.000;2023-12-07T14:04:21;8.30;99.90
3262;DHT22;1643;47.746;9.000;2023-12-07T14:06:48;8.10;99.90
3262;DHT22;1643;47.746;9.000;2023-12-07T14:09:13;8.00;99.90
3262;DHT22;1643;47.746;9.000;2023-12-07T14:11:39;8.10;99.90
3262;DHT22;1643;47.746;9.000;2023-12-07T14:14:05;7.90;99.90
3262;DHT22;1643;47.746;9.000;2023-12-07T14:16:30;7.90;99.90
3262;DHT22;1643;47.746;9.000;2023-12-07T14:18:56;7.90;99.90
3262;DHT22;1643;47.746;9.000;2023-12-07T14:21:22;8.10;99.90
3262;DHT22;1643;47.746;9.000;2023-12-07T14:23:49;8.30;99.90
3262;DHT22;1643;47.746;9.000;2023-12-07T14:26:15;8.10;99.90
3262;DHT22;1643;47.746;9.000;2023-12-07T14:28:40;8.00;99.90
3262;DHT22;1643;47.746;9.000;2023-12-07T14:31:07;7.80;99.90
3262;DHT22;1643;47.746;9.000;2023-12-07T14:33:39;8.10;99.90
3262;DHT22;1643;47.746;9.000;2023-12-07T14:36:06;8.50;99.90
3262;DHT22;1643;47.746;9.000;2023-12-07T14:38:32;9.10;99.90
3262;DHT22;1643;47.746;9.000;2023-12-07T14:40:57;9.40;99.90
3262;DHT22;1643;47.746;9.000;2023-12-07T14:43:23;9.60;99.90
3262;DHT22;1643;47.746;9.000;2023-12-07T14:45:48;9.60;99.90
3262;DHT22;1643;47.746;9.000;2023-12-07T14:48:14;9.40;99.90
3262;DHT22;1643;47.746;9.000;2023-12-07T14:50:40;9.10;99.90
3262;DHT22;1643;47.746;9.000;2023-12-07T14:53:05;8.90;99.90
3262;DHT22;1643;47.746;9.000;2023-12-07T14:55:31;8.60;99.90
3262;DHT22;1643;47.746;9.000;2023-12-07T14:57:56;8.30;99.90
3262;DHT22;1643;47.746;9.000;2023-12-07T15:00:22;8.20;99.90
3262;DHT22;1643;47.746;9.000;2023-12-07T15:02:48;8.10;99.90
3262;DHT22;1643;47.746;9.000;2023-12-07T15:05:13;7.90;99.90
3262;DHT22;1643;47.746;9.000;2023-12-07T15:07:39;7.80;99.90
3262;DHT22;1643;47.746;9.000;2023-12-07T15:10:05;7.70;99.90
3262;DHT22;1643;47.746;9.000;2023-12-07T15:12:31;7.70;99.90
3262;DHT22;1643;47.746;9.000;2023-12-07T15:14:57;7.60;99.90
3262;DHT22;1643;47.746;9.000;2023-12-07T15:17:22;7.60;99.90
3262;DHT22;1643;47.746;9.000;2023-12-07T15:19:48;7.60;99.90
3262;DHT22;1643;47.746;9.000;2023-12-07T15:22:14;7.50;99.90
3262;DHT22;1643;47.746;9.000;2023-12-07T15:24:39;7.40;99.90
3262;DHT22;1643;47.746;9.000;2023-12-07T15:27:05;7.30;99.90
3262;DHT22;1643;47.746;9.000;2023-12-07T15:29:32;7.10;99.90
3262;DHT22;1643;47.746;9.000;2023-12-07T15:31:59;6.90;99.90
3262;DHT22;1643;47.746;9.000;2023-12-07T15:34:25;6.80;99.90
3262;DHT22;1643;47.746;9.000;2023-12-07T15:36:50;6.70;99.90
3262;DHT22;1643;47.746;9.000;2023-12-07T15:39:16;6.60;99.90
3262;DHT22;1643;47.746;9.000;2023-12-07T15:41:42;6.60;99.90
3262;DHT22;1643;47.746;9.000;2023-12-07T15:44:08;6.50;99.90
3262;DHT22;1643;47.746;9.000;2023-12-07T15:46:34;6.60;99.90
3262;DHT22;1643;47.746;9.000;2023-12-07T15:49:00;6.50;99.90
3262;DHT22;1643;47.746;9.000;2023-12-07T15:51:25;6.40;99.90
3262;DHT22;1643;47.746;9.000;2023-12-07T15:53:51;6.40;99.90
3262;DHT22;1643;47.746;9.000;2023-12-07T15:56:17;6.30;99.90
3262;DHT22;1643;47.746;9.000;2023-12-07T15:58:42;6.20;99.90
3262;DHT22;1643;47.746;9.000;2023-12-07T16:01:08;6.20;99.90
3262;DHT22;1643;47.746;9.000;2023-12-07T16:03:33;6.10;99.90
3262;DHT22;1643;47.746;9.000;2023-12-07T16:06:01;6.10;99.90
3262;DHT22;1643;47.746;9.000;2023-12-07T16:08:26;6.10;99.90
3262;DHT22;1643;47.746;9.000;2023-12-07T16:10:52;6.00;99.90
3262;DHT22;1643;47.746;9.000;2023-12-07T16:13:18;5.90;99.90
3262;DHT22;1643;47.746;9.000;2023-12-07T16:15:43;5.90;99.90